createdAt,value
2024-02-13T00:00:00.745Z,17.20
2024-02-13T00:01:00.773Z,16.80
2024-02-13T00:02:00.752Z,17.70
2024-02-13T00:03:00.853Z,17.30
2024-02-13T00:04:00.795Z,17.90
2024-02-13T00:05:00.701Z,18.40
2024-02-13T00:06:00.730Z,18.20
2024-02-13T00:07:00.693Z,18.10
2024-02-13T00:08:00.730Z,18.00
2024-02-13T00:09:00.794Z,18.40
2024-02-13T00:10:22.371Z,18.20
2024-02-13T00:11:00.640Z,17.50
2024-02-13T00:12:00.730Z,17.70
2024-02-13T00:13:00.608Z,17.80
2024-02-13T00:14:00.600Z,17.30
2024-02-13T00:15:00.657Z,18.00
2024-02-13T00:16:00.598Z,18.30
2024-02-13T00:17:00.572Z,18.60
2024-02-13T00:18:00.667Z,18.80
2024-02-13T00:19:00.584Z,18.50
2024-02-13T00:20:00.579Z,18.10
2024-02-13T00:21:00.576Z,19.30
2024-02-13T00:22:00.548Z,18.80
2024-02-13T00:23:00.661Z,19.40
2024-02-13T00:24:00.563Z,18.60
2024-02-13T00:25:00.483Z,18.30
2024-02-13T00:26:00.497Z,18.20
2024-02-13T00:27:00.542Z,18.40
2024-02-13T00:28:00.490Z,18.50
2024-02-13T00:29:00.449Z,18.50
2024-02-13T00:30:00.435Z,19.10
2024-02-13T00:31:00.426Z,18.50
2024-02-13T00:32:00.410Z,19.10
2024-02-13T00:33:00.465Z,18.90
2024-02-13T00:34:00.442Z,19.90
2024-02-13T00:35:00.533Z,18.40
2024-02-13T00:36:00.430Z,19.00
2024-02-13T00:37:00.357Z,18.80
2024-02-13T00:38:00.406Z,19.10
2024-02-13T00:39:00.353Z,18.50
2024-02-13T00:40:00.337Z,18.30
2024-02-13T00:41:00.322Z,18.20
2024-02-13T00:42:00.312Z,18.20
2024-02-13T00:43:00.392Z,18.80
2024-02-13T00:44:00.294Z,18.30
2024-02-13T00:45:00.303Z,19.40
2024-02-13T00:46:00.305Z,19.30
2024-02-13T00:47:00.266Z,18.50
2024-02-13T00:48:00.367Z,18.30
2024-02-13T00:49:00.330Z,18.90
2024-02-13T00:50:00.262Z,18.30
2024-02-13T00:51:00.367Z,18.40
2024-02-13T00:52:00.206Z,18.10
2024-02-13T00:53:00.212Z,18.90
2024-02-13T00:54:00.193Z,18.20
2024-02-13T00:55:00.188Z,19.10
2024-02-13T00:56:00.241Z,18.70
2024-02-13T00:57:00.228Z,18.50
2024-02-13T00:58:00.145Z,18.30
2024-02-13T00:59:00.129Z,17.70
2024-02-13T01:00:00.151Z,18.10
2024-02-13T01:01:00.133Z,18.30
2024-02-13T01:02:00.115Z,18.60
2024-02-13T01:03:00.119Z,18.60
2024-02-13T01:04:00.110Z,19.40
2024-02-13T01:05:00.056Z,18.10
2024-02-13T01:06:00.106Z,17.70
2024-02-13T01:07:00.171Z,17.90
2024-02-13T01:08:00.048Z,17.70
2024-02-13T01:09:00.017Z,17.60
2024-02-13T01:09:59.998Z,18.00
2024-02-13T01:11:00.001Z,17.30
2024-02-13T01:12:00.047Z,16.80
2024-02-13T01:12:59.980Z,16.70
2024-02-13T01:13:59.969Z,17.30
2024-02-13T01:14:59.959Z,16.90
2024-02-13T01:15:59.951Z,17.90
2024-02-13T01:16:59.956Z,17.20
2024-02-13T01:17:59.987Z,16.40
2024-02-13T01:19:00.016Z,16.70
2024-02-13T01:19:59.900Z,16.50
2024-02-13T01:20:59.957Z,16.60
2024-02-13T01:21:59.871Z,16.10
2024-02-13T01:22:59.878Z,15.50
2024-02-13T01:23:59.869Z,16.30
2024-02-13T01:24:59.854Z,16.50
2024-02-13T01:25:59.833Z,14.90
2024-02-13T01:26:59.851Z,15.80
2024-02-13T01:27:59.810Z,16.60
2024-02-13T01:28:59.798Z,15.50
2024-02-13T01:29:59.855Z,15.50
2024-02-13T01:30:59.908Z,14.90
2024-02-13T01:31:59.784Z,15.30
2024-02-13T01:33:00.026Z,15.50
2024-02-13T01:33:59.828Z,15.50
2024-02-13T01:34:59.741Z,15.30
2024-02-13T01:35:59.770Z,15.30
2024-02-13T01:36:59.732Z,16.00
2024-02-13T01:37:59.710Z,14.90
2024-02-13T01:38:59.737Z,14.80
2024-02-13T01:39:59.681Z,15.20
2024-02-13T01:40:59.700Z,14.10
2024-02-13T01:41:59.658Z,14.00
2024-02-13T01:42:59.646Z,14.10
2024-02-13T01:43:59.637Z,14.40
2024-02-13T01:44:59.629Z,14.40
2024-02-13T01:45:59.611Z,15.10
2024-02-13T01:46:59.602Z,14.70
2024-02-13T01:47:59.702Z,14.30
2024-02-13T01:49:00.138Z,14.30
2024-02-13T01:49:59.565Z,14.60
2024-02-13T01:50:59.589Z,13.80
2024-02-13T01:51:59.581Z,14.30
2024-02-13T01:52:59.549Z,13.80
2024-02-13T01:53:59.600Z,14.60
2024-02-13T01:54:59.521Z,14.60
2024-02-13T01:55:59.506Z,14.00
2024-02-13T01:56:59.496Z,14.70
2024-02-13T01:57:59.505Z,14.10
2024-02-13T01:58:59.483Z,14.30
2024-02-13T01:59:59.612Z,13.90
2024-02-13T02:00:59.492Z,13.80
2024-02-13T02:01:59.453Z,13.50
2024-02-13T02:02:59.492Z,14.20
2024-02-13T02:03:59.472Z,14.50
2024-02-13T02:04:59.433Z,14.20
2024-02-13T02:05:59.457Z,14.00
2024-02-13T02:06:59.443Z,14.20
2024-02-13T02:07:59.378Z,14.00
2024-02-13T02:08:59.655Z,14.00
2024-02-13T02:09:59.357Z,13.90
2024-02-13T02:10:59.465Z,13.40
2024-02-13T02:11:59.381Z,14.20
2024-02-13T02:12:59.331Z,13.90
2024-02-13T02:13:59.316Z,13.40
2024-02-13T02:14:59.395Z,13.10
2024-02-13T02:15:59.325Z,13.40
2024-02-13T02:16:59.297Z,13.60
2024-02-13T02:17:59.428Z,13.40
2024-02-13T02:18:59.316Z,14.20
2024-02-13T02:19:59.273Z,13.80
2024-02-13T02:20:59.348Z,13.10
2024-02-13T02:21:59.227Z,13.90
2024-02-13T02:22:59.227Z,13.20
2024-02-13T02:23:59.218Z,13.50
2024-02-13T02:24:59.205Z,13.40
2024-02-13T02:25:59.202Z,13.10
2024-02-13T02:26:59.217Z,13.10
2024-02-13T02:27:59.169Z,13.20
2024-02-13T02:28:59.160Z,13.60
2024-02-13T02:29:59.215Z,13.50
2024-02-13T02:30:59.145Z,13.20
2024-02-13T02:31:59.121Z,13.00
2024-02-13T02:32:59.368Z,13.00
2024-02-13T02:33:59.114Z,13.20
2024-02-13T02:34:59.107Z,13.10
2024-02-13T02:35:59.147Z,13.20
2024-02-13T02:36:59.103Z,13.40
2024-02-13T02:37:59.094Z,12.90
2024-02-13T02:38:59.137Z,12.40
2024-02-13T02:39:59.056Z,12.20
2024-02-13T02:40:59.042Z,12.50
2024-02-13T02:41:59.071Z,12.40
2024-02-13T02:42:59.038Z,11.60
2024-02-13T02:43:59.032Z,12.20
2024-02-13T02:44:59.058Z,12.70
2024-02-13T02:45:59.000Z,12.20
2024-02-13T02:46:58.967Z,11.70
2024-02-13T02:47:59.073Z,12.30
2024-02-13T02:48:59.005Z,12.00
2024-02-13T02:49:58.960Z,11.60
2024-02-13T02:50:58.948Z,11.80
2024-02-13T02:51:58.918Z,11.80
2024-02-13T02:52:58.913Z,11.90
2024-02-13T02:53:58.983Z,11.60
2024-02-13T02:54:58.892Z,11.10
2024-02-13T02:55:58.877Z,11.90
2024-02-13T02:56:58.906Z,11.30
2024-02-13T02:57:58.862Z,11.20
2024-02-13T02:58:58.848Z,11.60
2024-02-13T02:59:58.887Z,11.30
2024-02-13T03:00:58.872Z,10.10
2024-02-13T03:01:58.808Z,10.90
2024-02-13T03:02:58.930Z,11.00
2024-02-13T03:03:58.825Z,10.90
2024-02-13T03:04:58.778Z,11.00
2024-02-13T03:05:58.831Z,10.30
2024-02-13T03:06:58.786Z,10.70
2024-02-13T03:07:58.740Z,10.60
2024-02-13T03:08:58.808Z,10.20
2024-02-13T03:09:58.723Z,9.70
2024-02-13T03:10:58.713Z,10.40
2024-02-13T03:11:58.778Z,9.90
2024-02-13T03:12:58.699Z,10.40
2024-02-13T03:13:58.681Z,9.50
2024-02-13T03:14:58.719Z,9.60
2024-02-13T03:15:58.670Z,10.20
2024-02-13T03:16:58.653Z,9.00
2024-02-13T03:17:58.777Z,9.50
2024-02-13T03:18:58.745Z,10.30
2024-02-13T03:19:58.651Z,9.60
2024-02-13T03:20:58.658Z,9.20
2024-02-13T03:21:58.598Z,10.00
2024-02-13T03:22:58.581Z,9.40
2024-02-13T03:23:58.634Z,9.60
2024-02-13T03:25:00.016Z,9.60
2024-02-13T03:25:58.549Z,9.00
2024-02-13T03:26:58.557Z,9.90
2024-02-13T03:27:58.534Z,9.60
2024-02-13T03:28:58.517Z,9.40
2024-02-13T03:29:58.540Z,9.10
2024-02-13T03:30:58.506Z,8.90
2024-02-13T03:31:58.490Z,9.20
2024-02-13T03:32:58.602Z,9.20
2024-02-13T03:33:58.572Z,9.70
2024-02-13T03:34:58.463Z,9.50
2024-02-13T03:35:58.447Z,8.60
2024-02-13T03:36:58.442Z,9.20
2024-02-13T03:37:58.421Z,8.30
2024-02-13T03:38:58.447Z,8.80
2024-02-13T03:39:58.406Z,8.40
2024-02-13T03:40:58.408Z,8.70
2024-02-13T03:41:58.371Z,9.00
2024-02-13T03:42:58.404Z,8.60
2024-02-13T03:43:58.354Z,8.40
2024-02-13T03:44:58.355Z,8.40
2024-02-13T03:45:58.356Z,8.40
2024-02-13T03:46:58.336Z,8.20
2024-02-13T03:47:58.430Z,8.60
2024-02-13T03:48:58.382Z,7.90
2024-02-13T03:49:58.351Z,8.00
2024-02-13T03:50:58.325Z,8.60
2024-02-13T03:51:58.269Z,8.50
2024-02-13T03:52:58.254Z,8.00
2024-02-13T03:53:58.248Z,8.00
2024-02-13T03:54:58.250Z,8.00
2024-02-13T03:55:58.221Z,8.20
2024-02-13T03:56:58.225Z,7.70
2024-02-13T03:57:58.205Z,8.00
2024-02-13T03:58:58.199Z,7.50
2024-02-13T03:59:58.218Z,7.80
2024-02-13T04:00:58.206Z,7.70
2024-02-13T04:01:58.161Z,7.50
2024-02-13T04:02:58.186Z,8.00
2024-02-13T04:03:58.162Z,7.10
2024-02-13T04:04:58.160Z,7.10
2024-02-13T04:05:58.182Z,7.10
2024-02-13T04:06:58.103Z,6.90
2024-02-13T04:07:58.095Z,6.80
2024-02-13T04:08:58.114Z,6.70
2024-02-13T04:09:58.087Z,6.60
2024-02-13T04:10:58.075Z,6.50
2024-02-13T04:11:58.056Z,6.20
2024-02-13T04:12:58.043Z,6.40
2024-02-13T04:13:58.031Z,6.50
2024-02-13T04:14:58.089Z,6.20
2024-02-13T04:15:58.016Z,6.70
2024-02-13T04:16:58.020Z,6.30
2024-02-13T04:17:58.034Z,6.30
2024-02-13T04:18:58.073Z,5.50
2024-02-13T04:19:57.980Z,6.10
2024-02-13T04:20:58.057Z,5.80
2024-02-13T04:21:57.955Z,5.70
2024-02-13T04:22:57.949Z,5.70
2024-02-13T04:23:58.017Z,5.70
2024-02-13T04:24:57.912Z,6.10
2024-02-13T04:25:57.903Z,5.80
2024-02-13T04:26:57.930Z,6.00
2024-02-13T04:27:57.888Z,5.60
2024-02-13T04:28:57.883Z,5.50
2024-02-13T04:29:57.956Z,5.80
2024-02-13T04:30:57.855Z,5.50
2024-02-13T04:31:57.836Z,5.60
2024-02-13T04:32:58.188Z,5.70
2024-02-13T04:33:57.954Z,5.70
2024-02-13T04:34:57.854Z,5.60
2024-02-13T04:35:57.812Z,5.40
2024-02-13T04:36:57.803Z,5.20
2024-02-13T04:37:57.786Z,5.20
2024-02-13T04:38:57.804Z,5.50
2024-02-13T04:39:57.755Z,5.70
2024-02-13T04:40:57.769Z,5.80
2024-02-13T04:41:57.816Z,5.40
2024-02-13T04:42:57.722Z,5.20
2024-02-13T04:43:57.714Z,5.00
2024-02-13T04:44:57.703Z,5.30
2024-02-13T04:45:57.695Z,5.00
2024-02-13T04:46:57.689Z,5.40
2024-02-13T04:47:57.836Z,5.60
2024-02-13T04:48:57.773Z,5.20
2024-02-13T04:49:57.649Z,5.40
2024-02-13T04:50:57.673Z,4.70
2024-02-13T04:51:57.638Z,4.50
2024-02-13T04:52:57.622Z,5.00
2024-02-13T04:53:57.653Z,5.00
2024-02-13T04:54:57.605Z,4.90
2024-02-13T04:55:57.599Z,5.30
2024-02-13T04:56:57.587Z,5.10
2024-02-13T04:57:57.583Z,4.90
2024-02-13T04:58:57.555Z,5.40
2024-02-13T04:59:57.567Z,5.20
2024-02-13T05:00:57.552Z,6.00
2024-02-13T05:01:57.521Z,5.50
2024-02-13T05:02:57.502Z,5.70
2024-02-13T05:03:57.527Z,5.60
2024-02-13T05:04:57.501Z,5.60
2024-02-13T05:05:57.542Z,5.80
2024-02-13T05:06:57.468Z,5.80
2024-02-13T05:07:57.480Z,5.90
2024-02-13T05:08:57.461Z,5.80
2024-02-13T05:09:57.438Z,5.50
2024-02-13T05:10:57.438Z,5.90
2024-02-13T05:11:57.469Z,5.70
2024-02-13T05:12:57.398Z,5.70
2024-02-13T05:13:59.830Z,5.50
2024-02-13T05:14:57.407Z,5.60
2024-02-13T05:15:57.376Z,5.40
2024-02-13T05:16:57.356Z,5.30
2024-02-13T05:17:57.417Z,5.50
2024-02-13T05:18:57.439Z,5.50
2024-02-13T05:19:57.332Z,5.80
2024-02-13T05:20:57.334Z,5.40
2024-02-13T05:21:57.306Z,6.00
2024-02-13T05:22:57.301Z,5.70
2024-02-13T05:23:57.309Z,5.90
2024-02-13T05:24:57.267Z,5.60
2024-02-13T05:25:57.256Z,5.70
2024-02-13T05:26:57.330Z,5.50
2024-02-13T05:27:57.256Z,5.10
2024-02-13T05:28:57.239Z,5.40
2024-02-13T05:29:57.253Z,5.50
2024-02-13T05:30:57.222Z,5.60
2024-02-13T05:31:57.197Z,5.80
2024-02-13T05:32:57.285Z,5.70
2024-02-13T05:33:57.277Z,5.80
2024-02-13T05:34:57.161Z,5.70
2024-02-13T05:35:57.197Z,6.10
2024-02-13T05:36:57.142Z,6.30
2024-02-13T05:37:57.146Z,5.70
2024-02-13T05:38:57.146Z,5.90
2024-02-13T05:39:57.130Z,6.00
2024-02-13T05:40:57.111Z,6.00
2024-02-13T05:41:57.125Z,5.50
2024-02-13T05:42:57.116Z,5.90
2024-02-13T05:43:57.082Z,6.40
2024-02-13T05:44:57.057Z,6.00
2024-02-13T05:45:57.049Z,5.90
2024-02-13T05:46:57.053Z,6.20
2024-02-13T05:47:57.167Z,5.70
2024-02-13T05:48:57.054Z,6.00
2024-02-13T05:49:57.001Z,5.90
2024-02-13T05:50:57.012Z,6.20
2024-02-13T05:51:56.990Z,6.40
2024-02-13T05:52:56.977Z,6.10
2024-02-13T05:53:57.257Z,6.20
2024-02-13T05:54:57.011Z,6.00
2024-02-13T05:55:56.957Z,6.40
2024-02-13T05:56:56.966Z,6.30
2024-02-13T05:57:56.932Z,6.50
2024-02-13T05:58:56.954Z,6.20
2024-02-13T05:59:56.989Z,6.80
2024-02-13T06:00:56.983Z,6.20
2024-02-13T06:01:56.934Z,6.70
2024-02-13T06:02:56.954Z,6.50
2024-02-13T06:03:57.028Z,7.10
2024-02-13T06:04:56.903Z,6.80
2024-02-13T06:05:57.055Z,7.00
2024-02-13T06:06:57.199Z,6.80
2024-02-13T06:07:56.812Z,6.90
2024-02-13T06:08:56.941Z,6.70
2024-02-13T06:09:56.800Z,6.40
2024-02-13T06:10:56.870Z,7.00
2024-02-13T06:11:56.822Z,6.80
2024-02-13T06:12:56.762Z,7.30
2024-02-13T06:14:07.015Z,6.90
2024-02-13T06:15:11.042Z,6.70
2024-02-13T06:16:14.340Z,7.20
2024-02-13T06:18:24.492Z,6.80
2024-02-13T06:19:25.052Z,6.60
2024-02-13T06:20:25.054Z,7.00
2024-02-13T06:21:27.438Z,6.60
2024-02-13T06:22:25.044Z,6.90
2024-02-13T06:23:25.015Z,6.90
2024-02-13T06:24:25.063Z,6.80
2024-02-13T06:25:24.972Z,7.00
2024-02-13T06:26:24.985Z,6.90
2024-02-13T06:27:24.938Z,7.10
2024-02-13T06:28:24.942Z,7.30
2024-02-13T06:29:24.977Z,7.30
2024-02-13T06:30:44.220Z,7.40
2024-02-13T06:32:42.635Z,7.50
2024-02-13T06:38:47.510Z,8.50
2024-02-13T06:39:48.419Z,8.20
2024-02-13T06:40:48.512Z,8.10
2024-02-13T06:41:48.504Z,8.90
2024-02-13T06:42:48.402Z,8.30
2024-02-13T06:43:48.391Z,8.60
2024-02-13T06:44:48.408Z,8.20
2024-02-13T06:45:48.353Z,8.60
2024-02-13T06:46:48.350Z,8.70
2024-02-13T06:47:48.457Z,8.80
2024-02-13T06:48:48.536Z,8.90
2024-02-13T06:49:48.344Z,8.30
2024-02-13T06:50:48.326Z,9.00
2024-02-13T06:51:48.287Z,9.20
2024-02-13T06:52:48.293Z,9.00
2024-02-13T06:53:48.275Z,9.40
2024-02-13T06:54:50.632Z,9.00
2024-02-13T06:55:48.254Z,8.90
2024-02-13T06:56:48.286Z,9.70
2024-02-13T06:57:48.272Z,9.40
2024-02-13T06:58:48.232Z,8.90
2024-02-13T06:59:48.264Z,8.80
2024-02-13T07:00:48.199Z,8.90
2024-02-13T07:01:48.238Z,9.20
2024-02-13T07:02:48.202Z,8.50
2024-02-13T07:03:48.207Z,8.60
2024-02-13T07:04:48.149Z,8.40
2024-02-13T07:05:48.288Z,8.60
2024-02-13T07:06:58.928Z,9.00
2024-02-13T07:07:48.762Z,8.60
2024-02-13T07:08:48.241Z,8.90
2024-02-13T07:09:48.249Z,8.60
2024-02-13T07:10:48.098Z,8.40
2024-02-13T07:11:48.102Z,8.40
2024-02-13T07:12:48.061Z,8.30
2024-02-13T07:13:48.031Z,8.50
2024-02-13T07:14:48.085Z,8.70
2024-02-13T07:15:48.137Z,8.60
2024-02-13T07:16:48.014Z,8.40
2024-02-13T07:17:56.197Z,9.10
2024-02-13T07:18:48.104Z,8.80
2024-02-13T07:19:48.052Z,8.60
2024-02-13T07:20:48.008Z,8.90
2024-02-13T07:21:47.980Z,9.10
2024-02-13T07:22:47.968Z,8.90
2024-02-13T07:23:47.970Z,9.00
2024-02-13T07:24:47.945Z,8.80
2024-02-13T07:25:47.905Z,8.60
2024-02-13T07:26:48.004Z,8.60
2024-02-13T07:27:47.908Z,8.30
2024-02-13T07:28:47.898Z,9.30
2024-02-13T07:29:47.951Z,8.80
2024-02-13T07:30:47.867Z,9.00
2024-02-13T07:31:47.851Z,9.10
2024-02-13T07:32:48.354Z,8.90
2024-02-13T07:33:47.979Z,8.70
2024-02-13T07:34:47.846Z,8.50
2024-02-13T07:35:47.909Z,8.10
2024-02-13T07:36:47.820Z,9.20
2024-02-13T07:37:47.802Z,8.60
2024-02-13T07:38:47.907Z,9.00
2024-02-13T07:39:47.762Z,8.80
2024-02-13T07:40:47.749Z,8.80
2024-02-13T07:41:47.809Z,8.40
2024-02-13T07:42:47.731Z,8.60
2024-02-13T07:43:47.722Z,8.90
2024-02-13T07:44:47.814Z,8.90
2024-02-13T07:45:47.696Z,8.50
2024-02-13T07:46:49.336Z,8.90
2024-02-13T07:47:47.720Z,8.50
2024-02-13T07:48:47.712Z,9.10
2024-02-13T07:49:47.663Z,9.00
2024-02-13T07:50:47.693Z,8.90
2024-02-13T07:51:47.638Z,9.10
2024-02-13T07:52:47.628Z,8.30
2024-02-13T07:53:49.349Z,8.20
2024-02-13T07:54:47.842Z,8.20
2024-02-13T07:55:47.586Z,8.10
2024-02-13T07:56:47.585Z,8.20
2024-02-13T07:57:47.585Z,8.60
2024-02-13T07:58:47.576Z,8.60
2024-02-13T07:59:47.581Z,7.90
2024-02-13T08:00:47.613Z,8.50
2024-02-13T08:01:47.521Z,8.20
2024-02-13T08:02:47.539Z,7.20
2024-02-13T08:03:47.533Z,8.20
2024-02-13T08:04:47.503Z,8.30
2024-02-13T08:05:47.562Z,8.50
2024-02-13T08:06:47.562Z,8.40
2024-02-13T08:07:47.474Z,8.40
2024-02-13T08:08:47.591Z,8.50
2024-02-13T08:09:47.435Z,8.90
2024-02-13T08:10:47.469Z,8.40
2024-02-13T08:11:47.449Z,8.70
2024-02-13T08:12:47.428Z,8.50
2024-02-13T08:13:47.408Z,8.60
2024-02-13T08:14:47.472Z,8.70
2024-02-13T08:15:47.375Z,9.00
2024-02-13T08:16:47.382Z,8.90
2024-02-13T08:17:47.476Z,8.90
2024-02-13T08:18:47.560Z,8.90
2024-02-13T08:19:47.393Z,9.30
2024-02-13T08:20:47.476Z,8.70
2024-02-13T08:21:47.346Z,9.50
2024-02-13T08:22:47.305Z,9.10
2024-02-13T08:23:47.412Z,9.00
2024-02-13T08:24:47.316Z,9.00
2024-02-13T08:25:47.275Z,8.70
2024-02-13T08:26:47.300Z,9.10
2024-02-13T08:27:47.241Z,8.40
2024-02-13T08:28:47.238Z,8.60
2024-02-13T08:29:47.281Z,9.50
2024-02-13T08:30:47.231Z,9.50
2024-02-13T08:31:47.195Z,9.00
2024-02-13T08:32:47.364Z,9.00
2024-02-13T08:33:47.453Z,8.90
2024-02-13T08:34:47.334Z,8.90
2024-02-13T08:35:47.247Z,9.20
2024-02-13T08:36:47.174Z,9.20
2024-02-13T08:37:47.162Z,9.30
2024-02-13T08:38:47.143Z,9.00
2024-02-13T08:39:47.121Z,8.90
2024-02-13T08:40:47.146Z,8.50
2024-02-13T08:41:47.166Z,8.90
2024-02-13T08:42:47.096Z,9.10
2024-02-13T08:43:47.072Z,9.30
2024-02-13T08:44:47.112Z,8.60
2024-02-13T08:45:47.052Z,8.70
2024-02-13T08:46:47.043Z,8.50
2024-02-13T08:47:47.108Z,8.90
2024-02-13T08:48:47.188Z,9.20
2024-02-13T08:49:47.228Z,8.50
2024-02-13T08:50:47.099Z,9.20
2024-02-13T08:51:47.015Z,8.90
2024-02-13T08:52:46.985Z,8.20
2024-02-13T08:53:47.053Z,8.70
2024-02-13T08:54:46.948Z,8.70
2024-02-13T08:55:46.949Z,8.40
2024-02-13T08:56:47.002Z,7.80
2024-02-13T08:57:46.925Z,8.00
2024-02-13T08:58:46.911Z,8.00
2024-02-13T08:59:46.916Z,8.00
2024-02-13T09:00:46.914Z,8.10
2024-02-13T09:01:46.873Z,7.80
2024-02-13T09:02:46.933Z,7.80
2024-02-13T09:03:46.874Z,7.40
2024-02-13T09:04:46.870Z,8.00
2024-02-13T09:05:46.940Z,7.30
2024-02-13T09:06:46.986Z,7.90
2024-02-13T09:07:46.822Z,8.00
2024-02-13T09:08:46.853Z,7.70
2024-02-13T09:09:46.798Z,7.30
2024-02-13T09:10:46.800Z,7.70
2024-02-13T09:11:46.856Z,7.30
2024-02-13T09:12:47.143Z,7.10
2024-02-13T09:13:46.749Z,7.40
2024-02-13T09:14:46.774Z,7.30
2024-02-13T09:15:46.774Z,7.70
2024-02-13T09:16:46.725Z,7.80
2024-02-13T09:17:47.016Z,7.20
2024-02-13T09:18:46.954Z,7.60
2024-02-13T09:19:46.804Z,7.20
2024-02-13T09:20:46.692Z,7.80
2024-02-13T09:21:46.671Z,7.60
2024-02-13T09:22:46.687Z,7.30
2024-02-13T09:23:46.670Z,7.20
2024-02-13T09:24:46.632Z,7.30
2024-02-13T09:25:46.611Z,7.70
2024-02-13T09:26:46.657Z,7.30
2024-02-13T09:27:46.614Z,7.20
2024-02-13T09:28:46.615Z,7.20
2024-02-13T09:29:46.624Z,7.10
2024-02-13T09:30:46.594Z,6.70
2024-02-13T09:31:47.743Z,7.10
2024-02-13T09:32:46.606Z,6.60
2024-02-13T09:33:46.841Z,7.10
2024-02-13T09:34:46.608Z,6.90
2024-02-13T09:35:46.599Z,6.80
2024-02-13T09:36:46.519Z,6.70
2024-02-13T09:37:46.490Z,6.90
2024-02-13T09:38:46.534Z,6.30
2024-02-13T09:39:46.486Z,6.50
2024-02-13T09:40:46.480Z,6.60
2024-02-13T09:41:46.464Z,6.50
2024-02-13T09:42:46.443Z,6.50
2024-02-13T09:43:48.348Z,6.20
2024-02-13T09:44:46.447Z,6.70
2024-02-13T09:45:46.410Z,6.50
2024-02-13T09:46:46.400Z,6.70
2024-02-13T09:47:46.547Z,6.40
2024-02-13T09:48:46.464Z,6.50
2024-02-13T09:49:46.384Z,6.60
2024-02-13T09:50:46.383Z,6.20
2024-02-13T09:51:46.359Z,6.50
2024-02-13T09:52:46.336Z,6.60
2024-02-13T09:53:46.384Z,6.30
2024-02-13T09:54:46.327Z,6.90
2024-02-13T09:55:46.305Z,6.60
2024-02-13T09:56:54.445Z,5.70
2024-02-13T09:57:55.642Z,6.50
2024-02-13T09:58:54.387Z,6.50
2024-02-13T09:59:54.510Z,6.40
2024-02-13T10:00:58.588Z,6.50
2024-02-13T10:02:58.006Z,5.30
2024-02-13T10:03:59.130Z,5.80
2024-02-13T10:04:58.918Z,5.80
2024-02-13T10:05:59.049Z,5.80
2024-02-13T10:06:59.082Z,5.90
2024-02-13T10:07:58.897Z,5.50
2024-02-13T10:08:58.987Z,5.90
2024-02-13T10:09:58.865Z,6.00
2024-02-13T10:10:58.862Z,5.60
2024-02-13T10:11:58.913Z,5.80
2024-02-13T10:12:58.860Z,5.40
2024-02-13T10:13:58.834Z,5.40
2024-02-13T10:14:58.880Z,5.60
2024-02-13T10:15:58.811Z,4.80
2024-02-13T10:17:00.692Z,5.20
2024-02-13T10:17:58.829Z,5.10
2024-02-13T10:18:59.362Z,4.90
2024-02-13T10:19:58.777Z,5.00
2024-02-13T10:20:58.873Z,4.90
2024-02-13T10:21:58.744Z,4.70
2024-02-13T10:22:58.765Z,4.60
2024-02-13T10:23:58.767Z,4.70
2024-02-13T10:24:58.714Z,4.60
2024-02-13T10:25:58.693Z,4.40
2024-02-13T10:26:58.780Z,4.40
2024-02-13T10:27:58.668Z,4.50
2024-02-13T10:28:58.666Z,4.30
2024-02-13T10:29:58.784Z,4.80
2024-02-13T10:30:58.646Z,4.80
2024-02-13T10:31:58.632Z,4.50
2024-02-13T10:32:58.662Z,4.50
2024-02-13T10:33:58.638Z,4.00
2024-02-13T10:34:58.634Z,4.10
2024-02-13T10:35:58.696Z,3.90
2024-02-13T10:36:58.592Z,4.20
2024-02-13T10:37:58.566Z,3.80
2024-02-13T10:38:58.595Z,4.20
2024-02-13T10:39:58.547Z,3.90
2024-02-13T10:40:58.582Z,4.00
2024-02-13T10:41:58.822Z,3.80
2024-02-13T10:42:58.519Z,3.60
2024-02-13T10:43:58.495Z,3.50
2024-02-13T10:44:58.594Z,3.70
2024-02-13T10:45:58.484Z,3.90
2024-02-13T10:46:58.476Z,3.30
2024-02-13T10:47:58.515Z,3.70
2024-02-13T10:49:07.718Z,3.60
2024-02-13T10:49:58.512Z,3.90
2024-02-13T10:50:58.806Z,3.50
2024-02-13T10:51:58.420Z,3.40
2024-02-13T10:52:58.418Z,3.30
2024-02-13T10:53:58.593Z,3.60
2024-02-13T10:54:58.392Z,3.20
2024-02-13T10:55:58.369Z,3.20
2024-02-13T10:56:58.410Z,3.10
2024-02-13T10:57:58.348Z,3.30
2024-02-13T10:58:58.500Z,2.80
2024-02-13T10:59:58.384Z,2.80
2024-02-13T11:00:58.386Z,2.90
2024-02-13T11:01:58.498Z,3.00
2024-02-13T11:02:58.479Z,2.90
2024-02-13T11:03:58.309Z,3.30
2024-02-13T11:04:58.409Z,3.10
2024-02-13T11:05:58.463Z,2.70
2024-02-13T11:06:58.306Z,2.70
2024-02-13T11:07:58.240Z,2.60
2024-02-13T11:08:58.400Z,2.70
2024-02-13T11:09:58.216Z,2.70
2024-02-13T11:10:58.231Z,2.70
2024-02-13T11:11:58.358Z,2.30
2024-02-13T11:12:58.186Z,2.70
2024-02-13T11:13:58.200Z,2.30
2024-02-13T11:14:58.245Z,2.20
2024-02-13T11:15:58.153Z,2.20
2024-02-13T11:16:58.140Z,2.20
2024-02-13T11:17:58.206Z,2.30
2024-02-13T11:18:58.202Z,2.10
2024-02-13T11:19:58.176Z,2.40
2024-02-13T11:20:58.142Z,2.40
2024-02-13T11:21:58.090Z,1.90
2024-02-13T11:22:58.104Z,2.20
2024-02-13T11:23:58.141Z,2.00
2024-02-13T11:24:58.074Z,2.10
2024-02-13T11:25:58.059Z,1.90
2024-02-13T11:26:58.068Z,2.10
2024-02-13T11:27:58.021Z,2.10
2024-02-13T11:28:58.018Z,2.00
2024-02-13T11:29:58.034Z,2.10
2024-02-13T11:30:57.989Z,1.80
2024-02-13T11:31:57.989Z,2.10
2024-02-13T11:32:58.022Z,1.80
2024-02-13T11:33:58.120Z,1.90
2024-02-13T11:34:58.006Z,2.00
2024-02-13T11:35:58.191Z,1.90
2024-02-13T11:36:57.943Z,2.00
2024-02-13T11:37:57.908Z,1.90
2024-02-13T11:38:57.971Z,2.00
2024-02-13T11:39:57.892Z,2.20
2024-02-13T11:40:57.916Z,2.00
2024-02-13T11:41:57.873Z,2.20
2024-02-13T11:42:57.863Z,2.10
2024-02-13T11:43:57.851Z,1.80
2024-02-13T11:44:57.845Z,1.90
2024-02-13T11:45:57.888Z,1.90
2024-02-13T11:46:57.831Z,1.80
2024-02-13T11:47:57.933Z,1.90
2024-02-13T11:48:57.962Z,2.00
2024-02-13T11:49:57.877Z,1.80
2024-02-13T11:50:57.804Z,2.00
2024-02-13T11:51:57.770Z,1.80
2024-02-13T11:52:57.761Z,1.90
2024-02-13T11:53:57.773Z,2.00
2024-02-13T11:54:57.752Z,1.90
2024-02-13T11:55:57.708Z,1.90
2024-02-13T11:56:57.909Z,1.60
2024-02-13T11:57:57.692Z,1.60
2024-02-13T11:58:57.683Z,1.60
2024-02-13T11:59:57.819Z,1.70
2024-02-13T12:00:57.715Z,1.70
2024-02-13T12:01:57.642Z,1.80
2024-02-13T12:02:57.703Z,1.70
2024-02-13T12:03:57.648Z,2.00
2024-02-13T12:04:57.623Z,1.90
2024-02-13T12:05:57.720Z,1.80
2024-02-13T12:06:57.610Z,1.70
2024-02-13T12:07:57.667Z,1.70
2024-02-13T12:08:57.609Z,1.70
2024-02-13T12:09:57.566Z,1.90
2024-02-13T12:10:57.557Z,1.90
2024-02-13T12:11:57.633Z,1.80
2024-02-13T12:12:57.555Z,1.70
2024-02-13T12:13:57.530Z,1.70
2024-02-13T12:14:57.591Z,1.90
2024-02-13T12:15:57.493Z,1.50
2024-02-13T12:16:57.529Z,1.90
2024-02-13T12:17:57.647Z,1.80
2024-02-13T12:18:57.606Z,1.90
2024-02-13T12:19:57.469Z,1.70
2024-02-13T12:20:57.549Z,1.80
2024-02-13T12:21:57.434Z,2.20
2024-02-13T12:22:57.421Z,1.40
2024-02-13T12:23:57.489Z,1.60
2024-02-13T12:24:57.450Z,1.50
2024-02-13T12:25:57.390Z,1.80
2024-02-13T12:26:57.410Z,1.40
2024-02-13T12:27:57.408Z,1.50
2024-02-13T12:28:57.345Z,1.80
2024-02-13T12:29:57.428Z,1.80
2024-02-13T12:30:57.326Z,1.60
2024-02-13T12:31:57.330Z,1.60
2024-02-13T12:32:57.442Z,1.50
2024-02-13T12:33:57.521Z,1.70
2024-02-13T12:34:57.357Z,1.50
2024-02-13T12:35:57.289Z,1.70
2024-02-13T12:36:57.307Z,1.60
2024-02-13T12:37:57.258Z,1.90
2024-02-13T12:38:57.255Z,1.80
2024-02-13T12:39:57.243Z,1.90
2024-02-13T12:40:57.219Z,1.60
2024-02-13T12:41:57.296Z,2.00
2024-02-13T12:42:57.208Z,1.80
2024-02-13T12:43:57.186Z,1.70
2024-02-13T12:44:57.306Z,1.80
2024-02-13T12:45:57.181Z,1.70
2024-02-13T12:46:57.165Z,1.70
2024-02-13T12:47:57.413Z,1.70
2024-02-13T12:48:57.521Z,1.50
2024-02-13T12:49:57.229Z,1.50
2024-02-13T12:50:57.304Z,1.60
2024-02-13T12:51:57.174Z,1.40
2024-02-13T12:52:57.105Z,1.70
2024-02-13T12:53:57.227Z,1.50
2024-02-13T12:54:57.077Z,1.60
2024-02-13T12:55:57.083Z,1.70
2024-02-13T12:56:57.097Z,2.10
2024-02-13T12:57:57.046Z,1.60
2024-02-13T12:58:57.039Z,1.60
2024-02-13T12:59:57.361Z,1.80
2024-02-13T13:00:57.084Z,1.70
2024-02-13T13:01:57.000Z,1.60
2024-02-13T13:02:56.997Z,1.50
2024-02-13T13:03:57.027Z,1.50
2024-02-13T13:04:56.959Z,1.70
2024-02-13T13:05:57.021Z,1.50
2024-02-13T13:06:56.966Z,1.50
2024-02-13T13:07:56.948Z,1.60
2024-02-13T13:08:58.154Z,1.40
2024-02-13T13:09:56.930Z,1.60
2024-02-13T13:10:56.908Z,1.60
2024-02-13T13:11:57.208Z,1.50
2024-02-13T13:12:56.893Z,1.60
2024-02-13T13:13:56.883Z,1.50
2024-02-13T13:14:56.898Z,1.60
2024-02-13T13:15:56.849Z,1.70
2024-02-13T13:16:56.867Z,1.50
2024-02-13T13:17:56.920Z,1.40
2024-02-13T13:18:57.123Z,1.40
2024-02-13T13:19:56.959Z,1.30